Time;durP1;ratioP1;P1;durP2;ratioP2;P2;SDS_P1;SDS_P2;PMS_P1;PMS_P2;Temp;Humidity;BMP_temperature;BMP_pressure;BME280_temperature;BME280_humidity;BME280_pressure;Samples;Min_cycle;Max_cycle;Signal;HPM_P1;HPM_P2
2022/11/28 00:01:21;;;;;;;8.23;5.72;;;;;;;;;;5015063;28;20049;-62
2022/11/28 00:03:47;;;;;;;7.97;5.53;;;;;;;;;;5014739;28;20475;-63
2022/11/28 00:06:14;;;;;;;6.32;5.60;;;;;;;;;;5014835;28;20497;-61
2022/11/28 00:08:41;;;;;;;5.78;4.97;;;;;;;;;;5014226;28;20052;-64
2022/11/28 00:11:09;;;;;;;6.20;5.32;;;;;;;;;;5014712;28;20096;-63
2022/11/28 00:13:36;;;;;;;8.48;5.72;;;;;;;;;;5014778;28;20314;-62
2022/11/28 00:16:04;;;;;;;7.95;6.03;;;;;;;;;;5014667;28;20050;-63
2022/11/28 00:18:31;;;;;;;9.35;6.40;;;;;;;;;;5013846;28;20050;-64
2022/11/28 00:21:06;;;;;;;6.70;5.78;;;;;;;;;;5014534;28;20124;-63
2022/11/28 00:23:32;;;;;;;7.78;5.63;;;;;;;;;;5014461;28;20096;-63
2022/11/28 00:26:13;;;;;;;6.65;5.30;;;;;;;;;;5014408;28;20050;-61
2022/11/28 00:28:40;;;;;;;7.05;5.57;;;;;;;;;;5012830;28;20069;-64
2022/11/28 00:31:11;;;;;;;5.35;4.82;;;;;;;;;;5014203;28;20104;-63
2022/11/28 00:33:38;;;;;;;7.28;5.45;;;;;;;;;;5014459;28;20482;-63
2022/11/28 00:36:05;;;;;;;6.57;5.38;;;;;;;;;;5014264;28;20100;-61
2022/11/28 00:38:32;;;;;;;6.65;5.28;;;;;;;;;;5013703;28;20112;-62
2022/11/28 00:41:04;;;;;;;6.85;5.47;;;;;;;;;;5014123;28;20076;-62
2022/11/28 00:43:31;;;;;;;8.88;6.05;;;;;;;;;;5014001;28;20046;-63
2022/11/28 00:45:57;;;;;;;7.60;5.88;;;;;;;;;;5014024;28;20100;-62
2022/11/28 00:48:25;;;;;;;6.97;5.45;;;;;;;;;;5013432;28;20132;-64
2022/11/28 00:50:52;;;;;;;8.13;6.25;;;;;;;;;;5013980;28;20050;-62
2022/11/28 00:53:18;;;;;;;6.50;5.40;;;;;;;;;;5013762;28;20072;-64
2022/11/28 00:55:45;;;;;;;7.97;5.80;;;;;;;;;;5013880;28;20045;-62
2022/11/28 00:58:12;;;;;;;7.38;5.88;;;;;;;;;;5013194;28;20053;-62
2022/11/28 01:00:38;;;;;;;8.18;6.05;;;;;;;;;;5012755;28;20524;-61
2022/11/28 01:03:05;;;;;;;8.02;6.00;;;;;;;;;;5013644;28;20513;-62
2022/11/28 01:05:32;;;;;;;7.45;5.38;;;;;;;;;;5013819;28;20046;-61
2022/11/28 01:07:58;;;;;;;7.82;6.15;;;;;;;;;;5012130;28;20104;-62
2022/11/28 01:10:26;;;;;;;8.50;5.93;;;;;;;;;;5013547;28;20076;-62
2022/11/28 01:12:52;;;;;;;10.23;6.55;;;;;;;;;;5013386;28;20535;-62
2022/11/28 01:15:19;;;;;;;7.45;5.75;;;;;;;;;;5013654;28;20046;-63
2022/11/28 01:17:45;;;;;;;8.02;6.38;;;;;;;;;;5013352;28;20045;-62
2022/11/28 01:20:12;;;;;;;9.30;7.38;;;;;;;;;;5013210;28;20050;-62
2022/11/28 01:22:39;;;;;;;9.43;7.20;;;;;;;;;;5013232;28;20103;-63
2022/11/28 01:25:06;;;;;;;8.55;6.78;;;;;;;;;;5013315;28;20046;-62
2022/11/28 01:27:32;;;;;;;10.73;7.45;;;;;;;;;;5013306;28;20575;-61
2022/11/28 01:29:59;;;;;;;10.50;7.18;;;;;;;;;;5012793;28;20061;-61
2022/11/28 01:32:26;;;;;;;9.82;6.95;;;;;;;;;;5013261;28;20053;-63
2022/11/28 01:34:52;;;;;;;13.52;7.88;;;;;;;;;;5012921;28;20053;-62
2022/11/28 01:37:19;;;;;;;9.05;7.15;;;;;;;;;;5013582;28;20100;-63
2022/11/28 01:39:45;;;;;;;9.00;7.40;;;;;;;;;;5012318;28;20053;-64
2022/11/28 01:42:16;;;;;;;9.32;6.88;;;;;;;;;;5013247;28;20104;-62
2022/11/28 01:44:48;;;;;;;9.48;6.28;;;;;;;;;;5013193;28;20115;-62
2022/11/28 01:47:19;;;;;;;8.85;6.32;;;;;;;;;;5013303;28;20045;-64
2022/11/28 01:49:46;;;;;;;9.35;6.40;;;;;;;;;;5011277;28;20050;-64
2022/11/28 01:52:15;;;;;;;6.57;5.50;;;;;;;;;;5011628;28;20104;-64
2022/11/28 01:54:44;;;;;;;8.55;5.57;;;;;;;;;;4995734;28;20422;-65
2022/11/28 01:57:14;;;;;;;6.47;5.20;;;;;;;;;;5011687;28;20046;-63
2022/11/28 01:59:46;;;;;;;6.07;5.00;;;;;;;;;;5011104;28;20472;-63
2022/11/28 02:02:36;;;;;;;8.52;5.82;;;;;;;;;;4995447;28;20061;-63
2022/11/28 02:05:03;;;;;;;9.13;5.03;;;;;;;;;;4998282;28;20050;-63
2022/11/28 02:07:30;;;;;;;7.78;5.55;;;;;;;;;;4995459;28;20049;-62
2022/11/28 02:09:56;;;;;;;6.03;5.30;;;;;;;;;;5011882;28;20394;-63
2022/11/28 02:12:32;;;;;;;5.65;5.05;;;;;;;;;;5012673;28;20045;-62
2022/11/28 02:15:50;;;;;;;6.55;5.43;;;;;;;;;;5012409;28;20084;-63
2022/11/28 02:18:37;;;;;;;6.10;5.30;;;;;;;;;;4962426;28;20119;-63
2022/11/28 02:21:31;;;;;;;7.38;5.38;;;;;;;;;;5011277;28;20050;-63
2022/11/28 02:24:19;;;;;;;5.38;4.78;;;;;;;;;;4994968;28;20104;-63
2022/11/28 02:26:58;;;;;;;6.65;4.68;;;;;;;;;;5012641;28;20563;-62
2022/11/28 02:29:27;;;;;;;8.02;5.65;;;;;;;;;;5010594;28;20050;-64
2022/11/28 02:32:12;;;;;;;7.40;5.38;;;;;;;;;;5012297;28;20045;-62
2022/11/28 02:34:42;;;;;;;5.22;4.68;;;;;;;;;;5012263;28;20097;-64
2022/11/28 02:37:33;;;;;;;5.53;4.90;;;;;;;;;;5012302;28;20046;-63
2022/11/28 02:40:17;;;;;;;8.68;5.53;;;;;;;;;;4994171;28;20053;-63
2022/11/28 02:43:09;;;;;;;7.95;5.70;;;;;;;;;;4994931;28;20050;-63
2022/11/28 02:45:38;;;;;;;5.40;4.90;;;;;;;;;;5010970;28;20041;-63
2022/11/28 02:48:12;;;;;;;8.45;5.97;;;;;;;;;;5011918;28;20049;-64
2022/11/28 02:50:50;;;;;;;8.38;5.90;;;;;;;;;;4995312;28;20054;-64
2022/11/28 02:53:19;;;;;;;9.77;6.40;;;;;;;;;;4995010;28;20053;-64
2022/11/28 02:55:45;;;;;;;7.28;5.65;;;;;;;;;;4994505;28;20132;-63
2022/11/28 02:58:12;;;;;;;7.28;6.20;;;;;;;;;;4994101;28;20077;-63
2022/11/28 03:00:42;;;;;;;7.50;5.45;;;;;;;;;;5011996;28;20472;-63
2022/11/28 03:03:40;;;;;;;9.20;6.93;;;;;;;;;;5011842;28;20100;-64
2022/11/28 03:06:47;;;;;;;8.65;6.22;;;;;;;;;;4995274;28;20571;-62
2022/11/28 03:09:25;;;;;;;7.60;6.15;;;;;;;;;;4968300;28;20054;-64
2022/11/28 03:12:06;;;;;;;8.05;5.95;;;;;;;;;;5011976;28;20093;-63
2022/11/28 03:14:54;;;;;;;8.35;5.85;;;;;;;;;;5010748;28;20081;-63
2022/11/28 03:17:36;;;;;;;7.97;5.60;;;;;;;;;;5010808;28;20077;-64
2022/11/28 03:20:37;;;;;;;7.68;5.32;;;;;;;;;;5011201;28;20136;-64
2022/11/28 03:23:29;;;;;;;6.30;5.57;;;;;;;;;;5011731;28;20425;-63
2022/11/28 03:26:04;;;;;;;5.82;5.13;;;;;;;;;;4975087;28;20100;-64
2022/11/28 03:28:36;;;;;;;5.75;4.97;;;;;;;;;;4993904;28;20049;-65
2022/11/28 03:31:13;;;;;;;7.20;4.55;;;;;;;;;;5012854;28;20140;-64
2022/11/28 03:33:46;;;;;;;6.53;4.75;;;;;;;;;;5014168;28;20537;-64
2022/11/28 03:36:23;;;;;;;6.50;4.55;;;;;;;;;;4997925;28;20084;-64
2022/11/28 03:38:53;;;;;;;6.25;4.95;;;;;;;;;;5013573;28;20570;-62
2022/11/28 03:41:24;;;;;;;5.82;4.50;;;;;;;;;;4998116;28;20308;-63
2022/11/28 03:43:52;;;;;;;6.25;4.90;;;;;;;;;;5015515;28;20081;-64
2022/11/28 03:46:20;;;;;;;5.32;4.30;;;;;;;;;;5014178;28;20100;-64
2022/11/28 03:48:49;;;;;;;6.95;5.15;;;;;;;;;;4997071;28;20054;-64
2022/11/28 03:51:24;;;;;;;7.28;5.20;;;;;;;;;;5015221;28;20088;-63
2022/11/28 03:53:55;;;;;;;7.47;5.20;;;;;;;;;;4997845;28;20046;-65
2022/11/28 03:56:27;;;;;;;6.47;5.00;;;;;;;;;;4981261;28;20137;-63
2022/11/28 03:58:58;;;;;;;5.82;5.10;;;;;;;;;;5013322;28;20058;-64
2022/11/28 04:01:39;;;;;;;7.70;5.05;;;;;;;;;;5014761;28;20049;-63
2022/11/28 04:04:29;;;;;;;9.07;5.63;;;;;;;;;;5013718;28;20085;-63
2022/11/28 04:06:58;;;;;;;5.50;4.90;;;;;;;;;;4997592;28;20046;-62
2022/11/28 04:09:40;;;;;;;6.85;5.35;;;;;;;;;;5012910;28;20054;-62
2022/11/28 04:12:32;;;;;;;6.13;4.85;;;;;;;;;;5014734;28;20089;-64
2022/11/28 04:15:24;;;;;;;6.68;4.75;;;;;;;;;;4960976;28;20497;-62
2022/11/28 04:18:05;;;;;;;8.48;5.05;;;;;;;;;;5012899;28;20081;-62
2022/11/28 04:20:35;;;;;;;5.63;4.65;;;;;;;;;;4997441;28;20111;-63
2022/11/28 04:23:06;;;;;;;6.43;5.43;;;;;;;;;;5021549;23;20081;-66
2022/11/28 04:25:34;;;;;;;5.20;4.65;;;;;;;;;;5015165;28;20053;-65
2022/11/28 04:28:04;;;;;;;5.78;4.90;;;;;;;;;;5016186;28;20057;-66
2022/11/28 04:30:30;;;;;;;8.85;5.47;;;;;;;;;;5016686;28;20419;-66
2022/11/28 04:33:00;;;;;;;6.00;4.60;;;;;;;;;;5016329;28;20149;-66
2022/11/28 04:35:31;;;;;;;7.63;4.88;;;;;;;;;;4997858;28;20105;-66
2022/11/28 04:37:58;;;;;;;8.35;5.13;;;;;;;;;;4996719;28;20046;-66
2022/11/28 04:40:25;;;;;;;5.30;4.57;;;;;;;;;;4996751;28;20136;-66
2022/11/28 04:42:54;;;;;;;5.63;4.38;;;;;;;;;;4996657;28;20053;-66
2022/11/28 04:45:27;;;;;;;7.65;5.60;;;;;;;;;;5014000;28;20081;-66
2022/11/28 04:47:53;;;;;;;6.72;5.10;;;;;;;;;;4997019;28;20091;-66
2022/11/28 04:50:21;;;;;;;11.85;5.75;;;;;;;;;;5012828;28;20050;-66
2022/11/28 04:52:57;;;;;;;7.78;4.85;;;;;;;;;;4996733;28;20108;-66
2022/11/28 04:56:00;;;;;;;6.68;5.57;;;;;;;;;;4997159;28;20116;-65
2022/11/28 04:58:44;;;;;;;7.97;5.47;;;;;;;;;;5008932;28;20073;-67
2022/11/28 05:01:13;;;;;;;6.65;5.43;;;;;;;;;;4996652;28;20081;-65
2022/11/28 05:03:40;;;;;;;6.80;4.80;;;;;;;;;;4996542;28;20050;-65
2022/11/28 05:06:08;;;;;;;6.90;5.57;;;;;;;;;;5012463;28;20496;-65
2022/11/28 05:08:35;;;;;;;7.07;5.07;;;;;;;;;;5013038;28;20074;-66
2022/11/28 05:11:01;;;;;;;8.68;4.85;;;;;;;;;;5013780;28;20065;-65
2022/11/28 05:13:28;;;;;;;6.43;5.40;;;;;;;;;;5013656;28;20131;-65
2022/11/28 05:15:54;;;;;;;8.35;5.90;;;;;;;;;;5013476;28;20049;-65
2022/11/28 05:18:21;;;;;;;7.25;5.28;;;;;;;;;;5013057;28;20072;-66
2022/11/28 05:20:48;;;;;;;6.65;5.63;;;;;;;;;;5012873;28;20133;-66
2022/11/28 05:23:14;;;;;;;7.10;5.22;;;;;;;;;;5013354;28;20081;-66
2022/11/28 05:25:41;;;;;;;8.18;5.80;;;;;;;;;;5013527;28;20136;-66
2022/11/28 05:28:07;;;;;;;9.10;6.53;;;;;;;;;;5012772;28;20049;-65
2022/11/28 05:30:34;;;;;;;6.53;5.45;;;;;;;;;;5013173;28;20046;-67
2022/11/28 05:33:01;;;;;;;7.90;6.15;;;;;;;;;;5013020;28;20099;-64
2022/11/28 05:35:28;;;;;;;6.80;5.32;;;;;;;;;;5013074;28;20555;-66
2022/11/28 05:37:54;;;;;;;7.47;5.60;;;;;;;;;;5013082;28;20268;-66
2022/11/28 05:40:21;;;;;;;6.35;5.35;;;;;;;;;;5013121;28;20077;-66
2022/11/28 05:42:48;;;;;;;9.65;5.60;;;;;;;;;;5012308;28;20050;-66
2022/11/28 05:45:14;;;;;;;5.90;5.30;;;;;;;;;;5012805;28;20126;-67
2022/11/28 05:47:41;;;;;;;7.28;5.20;;;;;;;;;;5012808;28;20206;-65
2022/11/28 05:50:08;;;;;;;7.38;5.50;;;;;;;;;;5012558;28;20477;-66
2022/11/28 05:52:34;;;;;;;6.80;5.20;;;;;;;;;;5012817;28;20053;-66
2022/11/28 05:55:01;;;;;;;5.45;4.60;;;;;;;;;;5012257;28;20046;-66
2022/11/28 05:57:28;;;;;;;8.45;6.32;;;;;;;;;;5012717;28;20074;-65
2022/11/28 05:59:56;;;;;;;6.95;4.97;;;;;;;;;;5012100;28;20061;-66
2022/11/28 06:02:22;;;;;;;6.38;5.20;;;;;;;;;;5012471;28;20123;-67
2022/11/28 06:04:49;;;;;;;7.00;5.38;;;;;;;;;;5012788;28;20556;-66
2022/11/28 06:07:17;;;;;;;6.40;5.07;;;;;;;;;;5012763;28;20053;-65
2022/11/28 06:09:44;;;;;;;8.15;5.03;;;;;;;;;;5011862;28;20050;-66
2022/11/28 06:12:11;;;;;;;6.63;5.18;;;;;;;;;;5012599;28;20473;-66
2022/11/28 06:14:37;;;;;;;9.77;5.50;;;;;;;;;;5012486;28;20077;-66
2022/11/28 06:17:04;;;;;;;5.97;4.47;;;;;;;;;;5012275;28;20129;-66
2022/11/28 06:19:30;;;;;;;6.07;5.13;;;;;;;;;;5011841;28;20050;-66
2022/11/28 06:21:57;;;;;;;7.35;5.53;;;;;;;;;;5012342;28;20144;-67
2022/11/28 06:24:24;;;;;;;6.38;4.95;;;;;;;;;;5012394;28;20115;-65
2022/11/28 06:26:50;;;;;;;7.55;5.47;;;;;;;;;;5012936;28;20045;-65
2022/11/28 06:29:17;;;;;;;7.07;5.60;;;;;;;;;;5011710;28;20084;-65
2022/11/28 06:31:43;;;;;;;6.30;5.13;;;;;;;;;;5012207;28;20054;-67
2022/11/28 06:34:11;;;;;;;9.23;6.15;;;;;;;;;;5012300;28;20424;-66
2022/11/28 06:36:38;;;;;;;6.07;5.22;;;;;;;;;;5012383;28;20077;-66
2022/11/28 06:39:05;;;;;;;6.75;5.40;;;;;;;;;;5011578;28;20045;-66
2022/11/28 06:41:31;;;;;;;6.78;5.88;;;;;;;;;;5013164;28;20463;-66
2022/11/28 06:43:58;;;;;;;8.38;6.20;;;;;;;;;;5011887;28;20049;-67
2022/11/28 06:46:25;;;;;;;10.63;5.90;;;;;;;;;;5010579;28;20104;-65
2022/11/28 06:48:52;;;;;;;8.23;6.00;;;;;;;;;;5011812;28;20478;-66
2022/11/28 06:51:19;;;;;;;7.60;6.20;;;;;;;;;;5011908;28;20077;-65
2022/11/28 06:53:45;;;;;;;7.65;5.82;;;;;;;;;;5011988;28;20049;-67
2022/11/28 06:56:14;;;;;;;8.23;6.30;;;;;;;;;;5011823;28;20081;-66
2022/11/28 06:58:41;;;;;;;9.25;6.05;;;;;;;;;;5011150;28;20049;-66
2022/11/28 07:01:16;;;;;;;7.60;6.05;;;;;;;;;;5011854;28;20140;-66
2022/11/28 07:03:43;;;;;;;9.05;5.80;;;;;;;;;;5011852;28;20057;-66
2022/11/28 07:06:11;;;;;;;8.38;5.93;;;;;;;;;;5014882;28;20054;-67
2022/11/28 07:08:37;;;;;;;6.80;5.55;;;;;;;;;;5015269;28;20054;-66
2022/11/28 07:11:18;;;;;;;7.43;5.45;;;;;;;;;;5014586;28;20097;-66
2022/11/28 07:13:45;;;;;;;7.55;5.70;;;;;;;;;;5030980;28;20050;-66
2022/11/28 07:16:16;;;;;;;6.40;5.25;;;;;;;;;;5015813;28;20073;-66
2022/11/28 07:18:43;;;;;;;6.57;5.00;;;;;;;;;;5014981;28;20133;-65
2022/11/28 07:21:10;;;;;;;7.20;5.55;;;;;;;;;;5015601;28;20103;-66
2022/11/28 07:23:37;;;;;;;8.20;5.50;;;;;;;;;;5015205;28;20085;-65
2022/11/28 07:26:04;;;;;;;5.65;4.80;;;;;;;;;;5015678;28;20049;-66
2022/11/28 07:28:31;;;;;;;8.82;6.22;;;;;;;;;;5015057;28;20049;-67
2022/11/28 07:31:04;;;;;;;8.45;5.40;;;;;;;;;;5015736;28;20074;-66
2022/11/28 07:33:31;;;;;;;9.27;6.03;;;;;;;;;;5015426;28;20088;-66
2022/11/28 07:36:02;;;;;;;8.63;5.85;;;;;;;;;;5015265;28;20092;-65
2022/11/28 07:38:28;;;;;;;13.00;5.43;;;;;;;;;;5015112;28;20463;-65
2022/11/28 07:41:04;;;;;;;9.25;5.70;;;;;;;;;;5015272;28;20046;-66
2022/11/28 07:43:31;;;;;;;9.07;6.18;;;;;;;;;;5014063;28;20088;-66
2022/11/28 07:45:59;;;;;;;12.60;5.65;;;;;;;;;;5014067;28;20050;-65
2022/11/28 07:48:27;;;;;;;10.13;6.50;;;;;;;;;;5014804;28;20140;-66
2022/11/28 07:50:53;;;;;;;9.48;5.95;;;;;;;;;;5014967;28;20076;-66
2022/11/28 07:53:20;;;;;;;8.40;5.40;;;;;;;;;;5015216;28;20050;-66
2022/11/28 07:55:47;;;;;;;9.65;5.80;;;;;;;;;;5015041;28;20089;-67
2022/11/28 07:58:14;;;;;;;9.35;5.82;;;;;;;;;;5014721;28;20077;-66
2022/11/28 08:00:40;;;;;;;8.00;5.53;;;;;;;;;;5014890;28;20482;-65
2022/11/28 08:03:07;;;;;;;6.82;5.35;;;;;;;;;;5014658;28;20054;-66
2022/11/28 08:05:33;;;;;;;8.13;5.53;;;;;;;;;;5030237;28;20046;-66
2022/11/28 08:08:00;;;;;;;7.47;5.57;;;;;;;;;;5014419;28;20073;-65
2022/11/28 08:10:27;;;;;;;9.80;6.20;;;;;;;;;;5014767;28;20072;-66
2022/11/28 08:12:53;;;;;;;8.75;5.70;;;;;;;;;;5029964;28;20108;-66
2022/11/28 08:15:20;;;;;;;8.82;5.68;;;;;;;;;;5014630;28;20057;-66
2022/11/28 08:17:46;;;;;;;8.15;5.90;;;;;;;;;;5013501;28;20137;-65
2022/11/28 08:20:13;;;;;;;9.05;5.78;;;;;;;;;;5014774;28;20096;-67
2022/11/28 08:22:40;;;;;;;8.40;5.55;;;;;;;;;;5014791;28;20096;-66
2022/11/28 08:25:07;;;;;;;10.82;6.53;;;;;;;;;;5014290;28;20326;-66
2022/11/28 08:27:33;;;;;;;11.40;5.90;;;;;;;;;;5014334;28;20053;-66
2022/11/28 08:30:00;;;;;;;9.18;5.97;;;;;;;;;;5013738;28;20053;-66
2022/11/28 08:32:28;;;;;;;9.90;7.03;;;;;;;;;;5014181;28;20046;-65
2022/11/28 08:34:55;;;;;;;13.20;7.30;;;;;;;;;;5014312;28;20053;-66
2022/11/28 08:37:22;;;;;;;9.05;6.57;;;;;;;;;;5014167;28;20508;-66
2022/11/28 08:39:48;;;;;;;9.73;6.65;;;;;;;;;;5013648;28;20128;-67
2022/11/28 08:42:15;;;;;;;10.52;7.40;;;;;;;;;;5014213;28;20054;-65
2022/11/28 08:44:41;;;;;;;8.65;7.13;;;;;;;;;;5013918;28;20496;-66
2022/11/28 08:47:08;;;;;;;11.48;7.05;;;;;;;;;;5014080;28;20046;-66
2022/11/28 08:49:38;;;;;;;10.70;6.60;;;;;;;;;;5013588;28;20141;-66
2022/11/28 08:52:04;;;;;;;9.82;6.95;;;;;;;;;;5014106;28;20131;-67
2022/11/28 08:54:31;;;;;;;8.68;6.03;;;;;;;;;;5013975;28;20046;-64
2022/11/28 08:56:58;;;;;;;10.88;6.40;;;;;;;;;;5014311;28;20559;-65
2022/11/28 08:59:25;;;;;;;10.98;6.30;;;;;;;;;;5013285;28;20104;-66
2022/11/28 09:01:52;;;;;;;9.43;6.18;;;;;;;;;;5013971;28;20077;-66
2022/11/28 09:04:20;;;;;;;6.75;5.70;;;;;;;;;;5014158;28;20054;-66
2022/11/28 09:06:47;;;;;;;9.07;5.90;;;;;;;;;;5013952;28;20053;-66
2022/11/28 09:09:13;;;;;;;8.63;6.18;;;;;;;;;;5013149;28;20058;-66
2022/11/28 09:11:40;;;;;;;8.77;5.88;;;;;;;;;;5013547;28;20104;-67
2022/11/28 09:14:07;;;;;;;9.35;5.85;;;;;;;;;;5013294;28;20504;-66
2022/11/28 09:16:34;;;;;;;11.88;7.13;;;;;;;;;;5013688;28;20105;-66
2022/11/28 09:19:01;;;;;;;9.25;5.40;;;;;;;;;;5011721;28;20054;-66
2022/11/28 09:21:27;;;;;;;9.85;6.22;;;;;;;;;;5013333;28;20106;-66
2022/11/28 09:23:54;;;;;;;7.57;5.35;;;;;;;;;;5013149;28;20053;-64
2022/11/28 09:26:23;;;;;;;7.68;6.00;;;;;;;;;;5013238;28;20096;-67
2022/11/28 09:28:50;;;;;;;9.07;5.47;;;;;;;;;;5011688;28;20104;-66
2022/11/28 09:31:17;;;;;;;8.13;5.47;;;;;;;;;;5013212;28;20104;-65
2022/11/28 09:33:45;;;;;;;6.20;5.18;;;;;;;;;;5013069;28;20049;-66
2022/11/28 09:36:19;;;;;;;7.13;6.00;;;;;;;;;;5013146;28;20085;-65
2022/11/28 09:38:46;;;;;;;8.23;5.97;;;;;;;;;;5012426;28;20045;-66
2022/11/28 09:41:48;;;;;;;8.85;5.53;;;;;;;;;;5012989;28;20540;-64
2022/11/28 09:44:24;;;;;;;8.45;6.00;;;;;;;;;;5012041;28;20050;-64
2022/11/28 09:46:53;;;;;;;7.88;5.63;;;;;;;;;;5013062;28;20077;-65
2022/11/28 09:49:43;;;;;;;7.45;5.85;;;;;;;;;;4995027;28;20085;-65
2022/11/28 09:52:16;;;;;;;8.38;5.50;;;;;;;;;;4998584;28;20424;-65
2022/11/28 09:55:01;;;;;;;7.18;5.32;;;;;;;;;;5012815;28;20100;-65
2022/11/28 09:57:41;;;;;;;9.23;5.85;;;;;;;;;;5012739;28;20045;-65
2022/11/28 10:00:22;;;;;;;9.65;6.13;;;;;;;;;;5012157;28;20096;-65
2022/11/28 10:02:58;;;;;;;8.60;6.20;;;;;;;;;;5011499;28;20096;-64
2022/11/28 10:05:53;;;;;;;9.95;5.97;;;;;;;;;;5009369;28;20085;-65
2022/11/28 10:08:35;;;;;;;10.73;5.70;;;;;;;;;;4992332;28;20468;-65
2022/11/28 10:11:05;;;;;;;7.88;5.82;;;;;;;;;;5009408;28;20045;-66
2022/11/28 10:13:44;;;;;;;7.40;5.63;;;;;;;;;;5010956;28;20088;-65
2022/11/28 10:16:50;;;;;;;8.90;6.35;;;;;;;;;;5012553;28;20050;-64
2022/11/28 10:19:21;;;;;;;12.73;6.05;;;;;;;;;;5010724;28;20092;-63
2022/11/28 10:22:12;;;;;;;7.82;5.47;;;;;;;;;;4995131;28;20056;-65
2022/11/28 10:24:54;;;;;;;8.88;7.13;;;;;;;;;;4984804;28;20065;-66
2022/11/28 10:27:20;;;;;;;9.98;6.18;;;;;;;;;;4987270;28;20112;-65
2022/11/28 10:30:00;;;;;;;10.38;6.20;;;;;;;;;;5006814;28;20101;-65
2022/11/28 10:32:32;;;;;;;12.07;7.18;;;;;;;;;;4980567;28;20061;-66
2022/11/28 10:35:18;;;;;;;9.70;5.32;;;;;;;;;;4998096;28;20116;-66
2022/11/28 10:37:49;;;;;;;7.28;5.70;;;;;;;;;;4985856;28;20129;-66
2022/11/28 10:40:27;;;;;;;7.47;5.45;;;;;;;;;;4989607;28;20133;-68
2022/11/28 10:43:12;;;;;;;6.82;5.10;;;;;;;;;;4994198;28;20050;-68
2022/11/28 10:46:12;;;;;;;8.77;5.13;;;;;;;;;;4999297;28;20149;-67
2022/11/28 10:48:50;;;;;;;10.52;5.40;;;;;;;;;;4996843;28;20053;-68
2022/11/28 10:51:42;;;;;;;6.80;5.38;;;;;;;;;;4999142;28;20042;-68
2022/11/28 10:54:09;;;;;;;9.45;5.53;;;;;;;;;;4999542;28;20131;-69
2022/11/28 10:56:52;;;;;;;8.40;5.95;;;;;;;;;;4999213;28;20498;-66
2022/11/28 10:59:18;;;;;;;7.93;6.10;;;;;;;;;;4997346;28;20410;-67
2022/11/28 11:01:45;;;;;;;8.45;5.47;;;;;;;;;;4997572;28;20050;-68
2022/11/28 11:04:25;;;;;;;8.95;5.75;;;;;;;;;;4995955;28;20054;-67
2022/11/28 11:07:09;;;;;;;7.80;5.93;;;;;;;;;;4999189;28;20133;-69
2022/11/28 11:09:44;;;;;;;9.77;5.80;;;;;;;;;;4997444;28;20552;-67
2022/11/28 11:12:19;;;;;;;9.55;5.40;;;;;;;;;;4997677;28;20065;-69
2022/11/28 11:14:46;;;;;;;8.40;5.47;;;;;;;;;;4978924;28;20054;-68
2022/11/28 11:17:32;;;;;;;6.85;5.28;;;;;;;;;;5000393;28;20054;-67
2022/11/28 11:20:27;;;;;;;13.32;9.73;;;;;;;;;;5000688;28;20471;-67
2022/11/28 11:22:55;;;;;;;7.03;5.85;;;;;;;;;;4999330;28;20493;-70
2022/11/28 11:25:31;;;;;;;9.23;6.10;;;;;;;;;;4996215;28;20051;-69
2022/11/28 11:28:00;;;;;;;7.03;5.53;;;;;;;;;;4981069;28;20111;-68
2022/11/28 11:30:27;;;;;;;8.38;5.53;;;;;;;;;;4995050;28;20510;-67
2022/11/28 11:32:55;;;;;;;10.23;5.85;;;;;;;;;;4996979;28;20093;-68
2022/11/28 11:35:29;;;;;;;7.63;5.97;;;;;;;;;;4996109;28;20201;-67
2022/11/28 11:38:19;;;;;;;8.52;5.63;;;;;;;;;;4996459;28;20447;-69
2022/11/28 11:40:47;;;;;;;7.03;5.50;;;;;;;;;;4997488;28;20500;-67
2022/11/28 11:43:31;;;;;;;7.63;5.28;;;;;;;;;;4998392;28;20132;-68
2022/11/28 11:46:14;;;;;;;10.23;5.63;;;;;;;;;;4995272;28;20054;-68
2022/11/28 11:48:42;;;;;;;;;;;;;;;;;;4998802;28;20077;-68
2022/11/28 11:51:25;;;;;;;7.03;4.95;;;;;;;;;;5000089;28;20008;-70
2022/11/28 11:54:04;;;;;;;7.78;5.93;;;;;;;;;;4999916;28;20053;-68
2022/11/28 11:56:36;;;;;;;9.25;5.80;;;;;;;;;;4998817;28;20097;-67
2022/11/28 11:59:25;;;;;;;13.32;6.47;;;;;;;;;;5000846;28;20104;-68
2022/11/28 12:01:56;;;;;;;8.07;5.57;;;;;;;;;;5002599;28;20167;-66
2022/11/28 12:04:36;;;;;;;9.13;6.43;;;;;;;;;;4985800;28;20112;-66
2022/11/28 12:07:37;;;;;;;7.55;5.72;;;;;;;;;;4998291;28;20069;-66
2022/11/28 12:10:05;;;;;;;10.50;6.43;;;;;;;;;;4993658;28;20046;-66
2022/11/28 12:12:35;;;;;;;8.32;6.25;;;;;;;;;;4971414;28;20504;-66
2022/11/28 12:15:02;;;;;;;9.05;6.45;;;;;;;;;;5010234;28;20053;-66
2022/11/28 12:17:56;;;;;;;15.13;8.90;;;;;;;;;;5000834;28;20057;-66
2022/11/28 12:20:46;;;;;;;12.30;8.45;;;;;;;;;;5005651;28;20136;-66
2022/11/28 12:23:34;;;;;;;9.00;6.88;;;;;;;;;;5001968;28;20396;-66
2022/11/28 12:26:27;;;;;;;9.10;6.75;;;;;;;;;;5002771;28;20041;-65
2022/11/28 12:29:12;;;;;;;11.52;6.75;;;;;;;;;;5004329;28;20108;-67
2022/11/28 12:31:42;;;;;;;9.82;6.78;;;;;;;;;;5000005;28;20568;-65
2022/11/28 12:34:18;;;;;;;8.32;7.03;;;;;;;;;;4999425;28;20062;-66
2022/11/28 12:37:23;;;;;;;8.73;6.20;;;;;;;;;;5002835;28;20061;-67
2022/11/28 12:40:21;;;;;;;9.20;6.40;;;;;;;;;;5002500;28;20129;-66
2022/11/28 12:42:51;;;;;;;7.32;5.93;;;;;;;;;;5006001;28;20390;-66
2022/11/28 12:45:38;;;;;;;8.88;6.80;;;;;;;;;;5008061;28;20085;-66
2022/11/28 12:48:39;;;;;;;7.72;6.43;;;;;;;;;;5002472;28;20085;-67
2022/11/28 12:51:15;;;;;;;10.15;6.68;;;;;;;;;;5009172;28;20451;-65
2022/11/28 12:53:51;;;;;;;8.90;6.80;;;;;;;;;;5004320;28;20129;-66
2022/11/28 12:56:40;;;;;;;9.38;6.45;;;;;;;;;;5006642;28;20082;-66
2022/11/28 12:59:29;;;;;;;8.77;6.50;;;;;;;;;;5001738;28;20089;-66
2022/11/28 13:02:19;;;;;;;9.50;6.70;;;;;;;;;;5003831;28;20610;-64
2022/11/28 13:05:17;;;;;;;13.10;7.35;;;;;;;;;;5005232;28;20057;-66
2022/11/28 13:08:11;;;;;;;10.05;6.97;;;;;;;;;;5002722;28;20460;-65
2022/11/28 13:10:40;;;;;;;;;;;;;;;;;;5004611;28;20131;-67
2022/11/28 13:13:12;;;;;;;9.82;6.55;;;;;;;;;;5001042;28;19929;-66
2022/11/28 13:15:56;;;;;;;7.85;6.43;;;;;;;;;;4997272;28;20073;-65
2022/11/28 13:18:40;;;;;;;9.93;6.75;;;;;;;;;;5002333;28;20093;-66
2022/11/28 13:21:14;;;;;;;10.95;6.70;;;;;;;;;;4993375;28;20042;-66
2022/11/28 13:23:46;;;;;;;10.20;6.57;;;;;;;;;;5000199;28;20097;-67
2022/11/28 13:26:34;;;;;;;8.98;7.32;;;;;;;;;;4998219;28;20104;-66
2022/11/28 13:29:20;;;;;;;9.15;7.38;;;;;;;;;;4998479;28;20046;-65
2022/11/28 13:31:49;;;;;;;8.55;6.38;;;;;;;;;;5000232;28;20049;-66
2022/11/28 13:34:17;;;;;;;10.30;7.18;;;;;;;;;;4997225;28;20137;-67
2022/11/28 13:36:59;;;;;;;11.32;7.30;;;;;;;;;;5000413;28;20085;-65
2022/11/28 13:39:58;;;;;;;10.02;6.85;;;;;;;;;;5000446;28;20466;-67
2022/11/28 13:42:54;;;;;;;9.93;6.65;;;;;;;;;;4983331;28;20099;-67
2022/11/28 13:45:36;;;;;;;11.05;6.82;;;;;;;;;;4973015;28;20055;-66
2022/11/28 13:48:43;;;;;;;10.48;6.65;;;;;;;;;;5002649;28;20046;-67
2022/11/28 13:51:31;;;;;;;9.70;7.00;;;;;;;;;;5006176;28;20049;-66
2022/11/28 13:54:25;;;;;;;9.35;7.18;;;;;;;;;;5011860;28;20050;-65
2022/11/28 13:57:04;;;;;;;10.23;6.20;;;;;;;;;;5011808;28;20073;-66
2022/11/28 13:59:30;;;;;;;9.25;6.78;;;;;;;;;;5011934;28;20092;-65
2022/11/28 14:01:59;;;;;;;9.32;6.13;;;;;;;;;;5012724;28;20096;-66
2022/11/28 14:04:25;;;;;;;9.13;6.45;;;;;;;;;;5012717;28;20052;-65
2022/11/28 14:06:57;;;;;;;8.02;6.22;;;;;;;;;;5011570;28;20058;-66
2022/11/28 14:10:02;;;;;;;10.80;6.83;;;;;;;;;;5012445;28;20559;-66
2022/11/28 14:13:10;;;;;;;11.18;7.25;;;;;;;;;;4961897;28;20373;-66
2022/11/28 14:15:46;;;;;;;13.65;10.68;;;;;;;;;;4991469;28;20054;-66
2022/11/28 14:18:20;;;;;;;12.30;9.25;;;;;;;;;;4998269;28;20133;-67
2022/11/28 14:21:23;;;;;;;12.00;8.70;;;;;;;;;;5012584;28;20045;-66
2022/11/28 14:24:04;;;;;;;10.55;7.43;;;;;;;;;;5012272;28;20100;-65
2022/11/28 14:26:33;;;;;;;12.30;7.43;;;;;;;;;;5011300;28;20053;-67
2022/11/28 14:29:00;;;;;;;13.88;7.63;;;;;;;;;;5011687;28;20493;-65
2022/11/28 14:31:35;;;;;;;8.50;6.20;;;;;;;;;;4980680;28;20047;-66
2022/11/28 14:34:40;;;;;;;13.50;6.63;;;;;;;;;;4991317;28;20054;-66
2022/11/28 14:37:20;;;;;;;9.80;7.00;;;;;;;;;;5002991;28;20057;-67
2022/11/28 14:39:48;;;;;;;8.18;6.75;;;;;;;;;;5010504;28;20045;-66
2022/11/28 14:42:14;;;;;;;9.52;7.55;;;;;;;;;;4991493;28;20046;-67
2022/11/28 14:45:22;;;;;;;11.05;7.80;;;;;;;;;;4992839;28;20519;-66
2022/11/28 14:48:18;;;;;;;12.73;8.32;;;;;;;;;;4996072;28;20105;-67
2022/11/28 14:50:50;;;;;;;11.50;8.35;;;;;;;;;;4992774;28;20085;-70
2022/11/28 14:53:36;;;;;;;13.48;9.48;;;;;;;;;;4995127;28;20049;-69
2022/11/28 14:56:12;;;;;;;13.82;9.35;;;;;;;;;;5006876;28;20576;-67
2022/11/28 14:58:39;;;;;;;12.85;8.60;;;;;;;;;;4998795;28;20144;-68
2022/11/28 15:01:09;;;;;;;13.43;9.23;;;;;;;;;;4984297;28;20108;-72
2022/11/28 15:03:41;;;;;;;11.88;8.70;;;;;;;;;;4994403;28;20425;-70
2022/11/28 15:06:19;;;;;;;14.32;9.57;;;;;;;;;;4983176;28;20042;-70
2022/11/28 15:09:19;;;;;;;13.60;8.73;;;;;;;;;;5004186;28;20061;-72
2022/11/28 15:12:07;;;;;;;14.60;9.38;;;;;;;;;;4998352;28;20062;-69
2022/11/28 15:14:33;;;;;;;14.07;9.77;;;;;;;;;;4996212;28;20071;-68
2022/11/28 15:17:02;;;;;;;12.45;9.65;;;;;;;;;;4980259;28;20475;-70
2022/11/28 15:19:30;;;;;;;10.85;8.95;;;;;;;;;;4982473;28;20097;-71
2022/11/28 15:21:57;;;;;;;12.82;8.82;;;;;;;;;;4999491;28;20050;-70